x

East Superior -70 Nm Ne Marquette, Mi (45004) Wave Buoy

7:50am - Wed 19th Nov 2014 All times are CST. -6 hours from GMT.

  • Sig Wave height 3.9ft
  • Swell Direction
  • Peak Period 6s
  • Average Period 5s
  • Wind
    11mph, 16mph gusts
  • Air Temp 25°f
  • Sea Pressure 1004.7mb
  • East Superior -70 Nm Ne Marquette, Mi
  • East Superior -70 Nm Ne Marquette, Mi

More Historic Weather Station data

Upgrade to MSW Pro to gain access to the past 30 days of data for over 8000 Wavebouys and Weather Stations around the globe.

Join Pro

Comparision Forecast

View Surf forecast
   
Wed 11/19 7:50am 4ft 6s 5s 11 16 mph 1004.7mb - 25f
6:50am 4.5ft 6s 5s 13 18 mph 1005mb - 25f
5:50am 4.5ft 5s 5s 16 20 mph 1005.2mb - 25f
4:50am 4.5ft 6s 5s 16 20 mph 1005.6mb - 25f
3:50am 4.5ft 5s 5s 16 20 mph 1006.2mb - 26f
2:50am 3.5ft 7s 6s 2 9 mph 1007.2mb - 24f
1:50am 5.5ft 6s 5s 11 18 mph 1007.8mb 39f 24f
12:50am 5ft 7s 5s 16 22 mph 1008.3mb 39f 22f
Tue 11/18 11:50pm 4.5ft 6s 5s 18 22 mph 1008.3mb 39f 24f
10:50pm 5ft 5s 5s 18 22 mph 1008.6mb 39f 23f
9:50pm 5.5ft 6s 5s 18 22 mph 1008.7mb 40f 22f
8:50pm 4.5ft 6s 5s 20 25 mph 1008.8mb 40f 23f
7:50pm 4.5ft 6s 5s 20 25 mph 1008.8mb 40f 22f
6:50pm 5ft 6s 5s 20 27 mph 1008.7mb 40f 22f
5:50pm 5ft 6s 5s 22 27 mph 1008.4mb 39f 22f
4:50pm 6ft 7s 5s 22 27 mph 1008.2mb 39f 22f
3:50pm 6ft 7s 5s 20 27 mph 1007.8mb 39f 21f
2:50pm 6.5ft 7s 5s 22 29 mph 1007.5mb 39f 21f
1:50pm 7ft 7s 5s 25 34 mph 1006.9mb 39f 21f
12:50pm 6.5ft 7s 5s 22 29 mph 1006.4mb 39f 21f
11:50am 8ft 7s 6s 25 31 mph 1005.8mb 39f 21f
10:50am 10ft 7s 6s 27 31 mph 1005.5mb 39f 22f
9:50am 11ft 8s 6s 27 34 mph 1004.8mb 39f 23f
8:50am 10ft 8s 6s 29 36 mph 1003.9mb 39f 22f
7:50am 10ft 8s 6s 29 36 mph 1003.1mb 39f 23f
6:50am 9.5ft 8s 6s 29 36 mph 1002.1mb 39f 22f
5:50am 9ft 8s 6s 29 36 mph 1001.3mb 39f 21f
4:50am 10ft 7s 6s 29 36 mph 1000.5mb 39f 21f
3:50am 9ft 7s 6s 29 38 mph 999.7mb 39f 21f
2:50am 8.5ft 7s 6s 29 38 mph 999.2mb 39f 22f
1:50am 7.5ft 7s 5s 27 34 mph 998.9mb 39f 21f
12:50am 7ft 7s 5s 27 34 mph 998.5mb 39f 21f
Mon 11/17 11:50pm 7ft 7s 5s 25 31 mph 998.5mb 39f 22f
10:50pm 8.5ft 7s 6s 25 31 mph 998.3mb 39f 22f
9:50pm 8ft 8s 6s 25 31 mph 998.4mb 39f 23f
8:50pm 7ft 7s 5s 29 36 mph 998.2mb 39f 23f
7:50pm 5.5ft 7s 5s 31 38 mph 997.7mb 39f 24f
6:50pm 4ft 6s 5s 13 20 mph 997.8mb 39f 24f
5:50pm 3.5ft 6s 5s 11 18 mph 998.1mb 39f 24f
4:50pm 3.5ft 5s 4s 11 16 mph 998.3mb 39f 24f
3:50pm 3.5ft 5s 4s 9 13 mph 998.3mb 39f 23f
2:50pm 4ft 5s 4s 13 20 mph 998.1mb 39f 23f
1:50pm 4ft 5s 4s 16 20 mph 998.2mb 39f 24f
12:50pm 4ft 6s 4s 18 20 mph 999mb 39f 22f
11:50am 4.5ft 6s 5s 18 25 mph 999.1mb 39f 24f
10:50am 5ft 6s 5s 18 25 mph 999.6mb 39f 24f
9:50am 5ft 6s 5s 20 25 mph 1000.5mb 39f 23f
8:50am 5ft 6s 5s 20 25 mph 1000.7mb 39f 24f
7:50am 5ft 6s 5s 22 27 mph 1000.9mb 39f 24f
6:50am 5.5ft 6s 5s 20 25 mph 1001.1mb 39f 24f
5:50am 6.5ft 6s 5s 18 22 mph 1001.4mb 40f 26f
4:50am 6ft 7s 5s 20 25 mph 1001.6mb 40f 25f
3:50am 6ft 8s 5s 16 22 mph 1002.1mb 40f 25f
2:50am 6.5ft 7s 5s 18 20 mph 1002.8mb 40f 26f
1:50am 6.5ft 6s 5s 20 27 mph 1003.4mb 40f 27f
12:50am 6ft 6s 5s 22 27 mph 1003.7mb 40f 27f
Sun 11/16 11:50pm 5.5ft 6s 5s 18 25 mph 1004.2mb 40f 28f